Saint Augustine, FL

11:33 AM EDT on September 22, 2014 (GMT -0400)
Craig Municipal | Change Station
CLOSE
Current Station
Airport
Location: Jacksonville Craig,
Elevation: 39 ft
Nearby Weather Stations

Elev 39 ft 30.34 °N, 81.51 °W | Updated 40 minutes ago

Clear
Clear
84 °F
Feels Like 87 °F
N
5
Wind Variable Wind from SSW

Today
High -- | Low -- °F
--% Chance of Precip.
Yesterday
High -- | Low -- °F
Precip. -- in
7:13 AM 7:21 PM
Waning Crescent, 2% visible
Pressure 30.06 in
Visibility 10.0 miles
Clouds Clear
Heat Index 87 °F
Dew Point 68 °F
Humidity 58%
Rainfall 0.00 in
Snow Depth Not available.
UV 8 out of 12
Pollen 7.40 out of 12
Ozone Good
PM2.5 Good
Flu Activity Not available.
METAR KCRG 221453Z 20004KT 10SM CLR 29/20 A3006 RMK AO2 SLP177 T02890200 50010

More Conditions Fewer Conditions

Pressure 30.06 in
Visibility 10.0 miles
Clouds Clear
Heat Index 87 °F
Dew Point 68 °F
Humidity 58%
Rainfall 0.00 in
Snow Depth Not available.
UV 8 out of 12
Pollen 7.40 out of 12
Ozone Good
PM2.5 Good
Flu Activity Not available.
METAR KCRG 221453Z 20004KT 10SM CLR 29/20 A3006 RMK AO2 SLP177 T02890200 50010

More Conditions Fewer Conditions

10-Day Weather Forecast

Almanac

Astronomy

Sep. 22, 2014 Rise Set
Actual Time 7:13 AM EDT 7:21 PM EDT
Civil Twilight 6:49 AM EDT 7:45 PM EDT
Nautical Twilight 6:21 AM EDT 8:13 PM EDT
Astronomical Twilight 5:53 AM EDT 8:41 PM EDT
Moon 5:45 AM EDT 6:25 PM EDT
Length of Visible Light 12h 55m
Length of Day
12h 08m
Tomorrow will be 1m 48s shorter.
Waning Crescent, 2% of the Moon is Illuminated
Today
Waning Crescent
Sep 24
New
Oct 1
First Quarter
Oct 8
Full
Oct 15
Last Quarter

Today's Extremes

State Highs State Lows

Community

WunderPhotos

Upload Photos

1,755,464 photos uploaded!

Nearby

Air Quality

  Air Quality AQ Index Pollutant
Yesterday Good
OZONE
Yesterday Good
PM2.5
Current Good
PM2.5
Current Good
OZONE
Monday Moderate
OZONE
Monday Good
PM2.5

Snow Depth

Station Depth Elevation
No new snow has been reported.

Earthquake Activity

City Distance Mag. Time & Date
No recent earthquake activity has been reported nearby.
Minimum magnitude displayed is 2.5.

Coastal Water Temperatures

Place Temperature
Mayport (Bar Pilots Dock), FL 82.0 °F
Fernandina Beach, FL 81.0 °F
Trident Pier, FL 82.9 °F

Nearby Weather Stations